Time;durP1;ratioP1;P1;durP2;ratioP2;P2;SDS_P1;SDS_P2;PMS_P1;PMS_P2;Temp;Humidity;BMP_temperature;BMP_pressure;BME280_temperature;BME280_humidity;BME280_pressure;Samples;Min_cycle;Max_cycle;Signal;HPM_P1;HPM_P2
2023/10/01 00:01:00;;;;;;;3.60;2.65;;;;;;;;;;5913908;28;20048;-75
2023/10/01 00:03:51;;;;;;;23.70;3.80;;;;;;;;;;5914569;28;20571;-74
2023/10/01 00:06:42;;;;;;;4.95;3.35;;;;;;;;;;5915048;28;20533;-74
2023/10/01 00:09:33;;;;;;;7.95;2.20;;;;;;;;;;5914649;28;20037;-75
2023/10/01 00:12:23;;;;;;;7.07;3.05;;;;;;;;;;5914583;28;20033;-73
2023/10/01 00:15:18;;;;;;;4.32;3.05;;;;;;;;;;5914530;28;20071;-73
2023/10/01 00:18:08;;;;;;;8.55;3.08;;;;;;;;;;5896716;28;20068;-74
2023/10/01 00:20:59;;;;;;;2.80;1.67;;;;;;;;;;5906861;28;20049;-75
2023/10/01 00:23:51;;;;;;;4.03;2.40;;;;;;;;;;5906314;28;20423;-72
2023/10/01 00:26:43;;;;;;;2.92;2.30;;;;;;;;;;5900084;28;20159;-73
2023/10/01 00:29:34;;;;;;;2.53;2.20;;;;;;;;;;5912020;28;20067;-75
2023/10/01 00:32:28;;;;;;;7.70;2.30;;;;;;;;;;5902294;28;20041;-74
2023/10/01 00:35:18;;;;;;;3.30;1.98;;;;;;;;;;5901437;28;20136;-75
2023/10/01 00:38:10;;;;;;;3.30;1.52;;;;;;;;;;5904487;28;20048;-75
2023/10/01 00:41:01;;;;;;;0.82;0.82;;;;;;;;;;5898899;28;20073;-76
2023/10/01 00:43:51;;;;;;;1.70;1.48;;;;;;;;;;5906160;28;20056;-75
2023/10/01 00:46:43;;;;;;;2.88;1.88;;;;;;;;;;5899794;28;20052;-72
2023/10/01 00:49:46;;;;;;;2.45;1.77;;;;;;;;;;5903151;28;20044;-74
2023/10/01 00:52:38;;;;;;;9.50;1.67;;;;;;;;;;5887866;28;20044;-74
2023/10/01 00:55:29;;;;;;;3.03;2.20;;;;;;;;;;5908276;28;20061;-74
2023/10/01 00:58:21;;;;;;;7.32;3.33;;;;;;;;;;5889822;28;20037;-75
2023/10/01 01:01:12;;;;;;;4.00;2.60;;;;;;;;;;5908405;28;20075;-75
2023/10/01 01:04:08;;;;;;;77.18;4.80;;;;;;;;;;5913678;28;20048;-74
2023/10/01 01:07:03;;;;;;;39.70;5.35;;;;;;;;;;5897151;28;20064;-74
2023/10/01 01:09:54;;;;;;;5.78;2.70;;;;;;;;;;5888955;28;20487;-74
2023/10/01 01:12:53;;;;;;;5.63;3.55;;;;;;;;;;5898538;28;20041;-75
2023/10/01 01:15:47;;;;;;;5.10;3.38;;;;;;;;;;5889824;28;20132;-72
2023/10/01 01:18:46;;;;;;;4.07;2.88;;;;;;;;;;5871901;28;20053;-74
2023/10/01 01:21:42;;;;;;;11.77;3.65;;;;;;;;;;5889759;28;20180;-72
2023/10/01 01:24:33;;;;;;;54.50;4.65;;;;;;;;;;5889651;28;20492;-74
2023/10/01 01:27:24;;;;;;;2.92;2.20;;;;;;;;;;5889556;28;20045;-73
2023/10/01 01:30:26;;;;;;;26.67;4.00;;;;;;;;;;5889616;28;20045;-73
2023/10/01 01:33:21;;;;;;;72.63;6.03;;;;;;;;;;5889016;28;20107;-73
2023/10/01 01:36:17;;;;;;;91.03;5.70;;;;;;;;;;5889217;28;20415;-73
2023/10/01 01:39:32;;;;;;;41.88;6.10;;;;;;;;;;5888687;28;20068;-73
2023/10/01 01:42:24;;;;;;;20.65;3.63;;;;;;;;;;5900648;28;20119;-74
2023/10/01 01:45:18;;;;;;;18.83;4.40;;;;;;;;;;5902587;28;20041;-73
2023/10/01 01:48:26;;;;;;;14.77;2.70;;;;;;;;;;5912300;28;20044;-72
2023/10/01 01:51:17;;;;;;;18.48;3.83;;;;;;;;;;5912428;28;20388;-72
2023/10/01 01:54:09;;;;;;;12.80;3.65;;;;;;;;;;5912361;28;20379;-74
2023/10/01 01:57:01;;;;;;;1.65;1.50;;;;;;;;;;5904863;28;20045;-72
2023/10/01 01:59:53;;;;;;;6.22;3.42;;;;;;;;;;5894836;28;20488;-72
2023/10/01 02:02:59;;;;;;;63.35;3.92;;;;;;;;;;5912072;28;20068;-76
2023/10/01 02:05:50;;;;;;;4.53;3.70;;;;;;;;;;5912172;28;20040;-73
2023/10/01 02:08:53;;;;;;;42.58;4.40;;;;;;;;;;5911862;28;20364;-74
2023/10/01 02:11:45;;;;;;;12.35;2.88;;;;;;;;;;5903560;28;20045;-73
2023/10/01 02:14:40;;;;;;;49.47;3.95;;;;;;;;;;5898688;28;20048;-74
2023/10/01 02:17:31;;;;;;;76.55;6.68;;;;;;;;;;5900429;28;20199;-73
2023/10/01 02:20:24;;;;;;;6.45;2.65;;;;;;;;;;5900680;28;20123;-74
2023/10/01 02:23:17;;;;;;;71.18;5.40;;;;;;;;;;5898269;28;20052;-73
2023/10/01 02:26:08;;;;;;;16.13;1.85;;;;;;;;;;5885846;28;20454;-74
2023/10/01 02:28:59;;;;;;;23.17;2.78;;;;;;;;;;5895799;28;20099;-75
2023/10/01 02:31:57;;;;;;;3.67;2.30;;;;;;;;;;5911796;28;20044;-75
2023/10/01 02:34:48;;;;;;;3.33;1.92;;;;;;;;;;5911602;28;20151;-73
2023/10/01 02:37:42;;;;;;;4.88;3.03;;;;;;;;;;5911340;28;20045;-75
2023/10/01 02:40:37;;;;;;;3.50;3.05;;;;;;;;;;5911279;28;20127;-74
2023/10/01 02:43:40;;;;;;;4.93;2.75;;;;;;;;;;5899872;28;20417;-73
2023/10/01 02:46:31;;;;;;;10.43;4.60;;;;;;;;;;5892297;28;20036;-75
2023/10/01 02:49:22;;;;;;;3.90;2.55;;;;;;;;;;5899959;28;20048;-75
2023/10/01 02:52:14;;;;;;;2.65;2.25;;;;;;;;;;5897491;28;20072;-74
2023/10/01 02:55:17;;;;;;;3.90;2.78;;;;;;;;;;5876233;28;20550;-75
2023/10/01 02:58:17;;;;;;;7.25;3.88;;;;;;;;;;5872415;28;20055;-74
2023/10/01 03:01:13;;;;;;;5.30;3.45;;;;;;;;;;5902565;28;20083;-73
2023/10/01 03:04:10;;;;;;;6.05;3.97;;;;;;;;;;5902317;28;20041;-75
2023/10/01 03:07:04;;;;;;;7.97;3.95;;;;;;;;;;5902626;28;20090;-75
2023/10/01 03:10:00;;;;;;;6.50;3.10;;;;;;;;;;5896239;28;20041;-73
2023/10/01 03:12:58;;;;;;;23.60;4.82;;;;;;;;;;5901457;28;20511;-74
2023/10/01 03:16:39;;;;;;;7.35;4.50;;;;;;;;;;5902396;28;20048;-75
2023/10/01 03:19:13;;;;;;;11.50;3.90;;;;;;;;;;5910986;28;20033;-75
2023/10/01 03:25:12;;;;;;;7.03;4.05;;;;;;;;;;5902705;28;20053;-74
2023/10/01 03:28:03;;;;;;;8.80;4.32;;;;;;;;;;5900841;28;20091;-74
2023/10/01 03:31:09;;;;;;;40.75;6.88;;;;;;;;;;5895878;28;20070;-75
2023/10/01 03:34:04;;;;;;;5.00;3.40;;;;;;;;;;5894948;28;20075;-74
2023/10/01 03:37:00;;;;;;;7.63;4.45;;;;;;;;;;5895007;28;20041;-73
2023/10/01 03:39:51;;;;;;;5.82;3.75;;;;;;;;;;5893946;28;20060;-74
2023/10/01 03:42:50;;;;;;;5.35;4.05;;;;;;;;;;5895733;28;20056;-74
2023/10/01 03:45:54;;;;;;;29.38;4.70;;;;;;;;;;5895111;28;20678;-73
2023/10/01 03:48:58;;;;;;;4.20;3.47;;;;;;;;;;5901540;28;20103;-75
2023/10/01 03:51:53;;;;;;;8.07;4.63;;;;;;;;;;5902055;28;20044;-74
2023/10/01 03:58:06;;;;;;;6.63;3.20;;;;;;;;;;5910433;28;20384;-74
2023/10/01 04:01:15;;;;;;;4.03;3.50;;;;;;;;;;5910031;28;20051;-73
2023/10/01 04:04:11;;;;;;;;;;;;;;;;;;5895132;28;20053;-73
2023/10/01 04:07:10;;;;;;;15.23;3.92;;;;;;;;;;5902684;28;20010;-75
2023/10/01 04:10:01;;;;;;;6.15;4.03;;;;;;;;;;5901891;28;20044;-74
2023/10/01 04:12:58;;;;;;;4.30;3.70;;;;;;;;;;5910659;28;20076;-72
2023/10/01 04:15:55;;;;;;;8.77;3.47;;;;;;;;;;5910047;28;20099;-73
2023/10/01 04:18:48;;;;;;;6.40;3.80;;;;;;;;;;5893065;28;20103;-72
2023/10/01 04:21:43;;;;;;;7.72;4.45;;;;;;;;;;5909907;28;20044;-73
2023/10/01 04:24:34;;;;;;;4.95;2.85;;;;;;;;;;5909871;28;20059;-74
2023/10/01 04:27:25;;;;;;;6.47;4.80;;;;;;;;;;5909900;28;20045;-74
2023/10/01 04:30:16;;;;;;;5.80;5.18;;;;;;;;;;5910025;28;20041;-72
2023/10/01 04:33:22;;;;;;;9.98;5.97;;;;;;;;;;5909896;28;20510;-73
2023/10/01 04:36:19;;;;;;;7.80;5.45;;;;;;;;;;5909762;28;20510;-72
2023/10/01 04:39:11;;;;;;;3.35;2.85;;;;;;;;;;5911083;28;20656;-72
2023/10/01 04:42:02;;;;;;;9.55;4.40;;;;;;;;;;5896248;28;20044;-72
2023/10/01 04:44:53;;;;;;;9.73;6.05;;;;;;;;;;5880078;28;20044;-74
2023/10/01 04:47:45;;;;;;;12.45;4.70;;;;;;;;;;5913377;28;20423;-73
2023/10/01 04:50:37;;;;;;;47.42;5.57;;;;;;;;;;5900820;28;20044;-74
2023/10/01 04:53:28;;;;;;;11.93;6.35;;;;;;;;;;5906196;28;20558;-75
2023/10/01 04:56:22;;;;;;;67.10;5.32;;;;;;;;;;5916366;28;20055;-74
2023/10/01 04:59:14;;;;;;;52.20;4.78;;;;;;;;;;5902890;28;20457;-73
2023/10/01 05:02:21;;;;;;;10.32;4.57;;;;;;;;;;5911947;28;20055;-73
2023/10/01 05:05:16;;;;;;;7.78;5.00;;;;;;;;;;5916256;28;20059;-74
2023/10/01 05:08:07;;;;;;;8.43;4.35;;;;;;;;;;5922650;28;20383;-74
2023/10/01 05:11:00;;;;;;;42.90;7.22;;;;;;;;;;5928330;28;20115;-72
2023/10/01 05:13:53;;;;;;;29.30;5.65;;;;;;;;;;5928829;28;20050;-73
2023/10/01 05:16:45;;;;;;;5.72;4.60;;;;;;;;;;5922228;28;20051;-74
2023/10/01 05:19:38;;;;;;;11.10;5.15;;;;;;;;;;5922898;28;20051;-72
2023/10/01 05:22:46;;;;;;;43.15;3.45;;;;;;;;;;5926032;28;20043;-73
2023/10/01 05:25:45;;;;;;;13.02;4.45;;;;;;;;;;5911927;28;20119;-73
2023/10/01 05:28:40;;;;;;;5.63;4.20;;;;;;;;;;5930263;28;20367;-74
2023/10/01 05:31:34;;;;;;;5.85;3.78;;;;;;;;;;5914675;28;20450;-73
2023/10/01 05:34:25;;;;;;;5.63;3.95;;;;;;;;;;5912428;28;20041;-72
2023/10/01 05:37:24;;;;;;;15.85;8.88;;;;;;;;;;5900828;28;20047;-75
2023/10/01 05:40:16;;;;;;;9.43;6.28;;;;;;;;;;5916356;28;20036;-74
2023/10/01 05:43:13;;;;;;;15.10;6.40;;;;;;;;;;5912321;28;20372;-72
2023/10/01 05:46:09;;;;;;;9.73;5.87;;;;;;;;;;5898702;28;20044;-74
2023/10/01 05:49:00;;;;;;;12.30;4.93;;;;;;;;;;5927008;28;20622;-73
2023/10/01 05:51:56;;;;;;;11.25;5.30;;;;;;;;;;5911736;28;20045;-73
2023/10/01 05:54:52;;;;;;;11.60;5.68;;;;;;;;;;5912012;28;20545;-75
2023/10/01 05:57:43;;;;;;;8.23;4.97;;;;;;;;;;5928502;28;20052;-72
2023/10/01 06:00:34;;;;;;;6.95;3.42;;;;;;;;;;5912892;28;20056;-74
2023/10/01 06:03:26;;;;;;;19.55;8.05;;;;;;;;;;5893487;28;20049;-73
2023/10/01 06:06:24;;;;;;;10.45;5.65;;;;;;;;;;5898155;28;20047;-74
2023/10/01 06:09:15;;;;;;;10.52;4.68;;;;;;;;;;5923044;28;20055;-74
2023/10/01 06:12:10;;;;;;;12.50;4.80;;;;;;;;;;5909886;28;20053;-73
2023/10/01 06:15:08;;;;;;;10.35;7.32;;;;;;;;;;5909848;28;20462;-74
2023/10/01 06:18:04;;;;;;;10.65;6.35;;;;;;;;;;5929198;28;20040;-73
2023/10/01 06:20:55;;;;;;;10.02;4.95;;;;;;;;;;5911889;28;20072;-73
2023/10/01 06:23:49;;;;;;;9.00;6.00;;;;;;;;;;5910891;28;20071;-73
2023/10/01 06:26:45;;;;;;;9.85;5.65;;;;;;;;;;5918131;28;20036;-73
2023/10/01 06:29:52;;;;;;;6.85;5.72;;;;;;;;;;5920528;28;20110;-74
2023/10/01 06:32:43;;;;;;;7.63;4.30;;;;;;;;;;5910974;28;20048;-75
2023/10/01 06:35:35;;;;;;;12.43;6.70;;;;;;;;;;5910705;28;20055;-73
2023/10/01 06:38:26;;;;;;;7.40;5.63;;;;;;;;;;5927467;28;20071;-73
2023/10/01 06:41:19;;;;;;;8.20;4.90;;;;;;;;;;5910946;28;20139;-75
2023/10/01 06:44:10;;;;;;;9.88;4.18;;;;;;;;;;5891764;28;20498;-73
2023/10/01 06:47:14;;;;;;;8.77;4.80;;;;;;;;;;5910189;28;20055;-73
2023/10/01 06:53:00;;;;;;;8.23;4.22;;;;;;;;;;5911298;28;20041;-72
2023/10/01 06:55:52;;;;;;;11.70;3.47;;;;;;;;;;5911528;28;20041;-74
2023/10/01 06:59:12;;;;;;;13.68;4.82;;;;;;;;;;5910984;28;20103;-72
2023/10/01 07:01:59;;;;;;;12.05;5.15;;;;;;;;;;5895713;28;20048;-75
2023/10/01 07:04:56;;;;;;;6.18;4.75;;;;;;;;;;5911027;28;20051;-72
2023/10/01 07:08:03;;;;;;;6.65;3.72;;;;;;;;;;5910714;28;20036;-74
2023/10/01 07:11:11;;;;;;;5.20;4.38;;;;;;;;;;5911371;28;20048;-72
2023/10/01 07:14:03;;;;;;;9.50;4.43;;;;;;;;;;5910773;28;20064;-72
2023/10/01 07:16:54;;;;;;;4.55;3.95;;;;;;;;;;5911433;28;20040;-74
2023/10/01 07:19:58;;;;;;;6.53;4.43;;;;;;;;;;5892899;28;20068;-75
2023/10/01 07:22:51;;;;;;;8.57;3.95;;;;;;;;;;5894854;28;20037;-74
2023/10/01 07:25:47;;;;;;;10.90;4.75;;;;;;;;;;5910457;28;20048;-74
2023/10/01 07:28:41;;;;;;;9.50;4.38;;;;;;;;;;5910323;28;20045;-73
2023/10/01 07:31:35;;;;;;;5.82;3.58;;;;;;;;;;5893112;28;20126;-72
2023/10/01 07:34:27;;;;;;;10.02;4.53;;;;;;;;;;5910126;28;20202;-73
2023/10/01 07:37:25;;;;;;;7.60;4.68;;;;;;;;;;5892859;28;20053;-74
2023/10/01 07:40:17;;;;;;;9.25;4.72;;;;;;;;;;5910182;28;20102;-73
2023/10/01 07:43:10;;;;;;;8.40;5.18;;;;;;;;;;5910315;28;20041;-73
2023/10/01 07:46:02;;;;;;;14.52;4.38;;;;;;;;;;5910597;28;20048;-73
2023/10/01 07:48:53;;;;;;;13.23;6.13;;;;;;;;;;5910902;28;20464;-73
2023/10/01 07:51:48;;;;;;;16.23;5.47;;;;;;;;;;5910411;28;20041;-73
2023/10/01 07:54:39;;;;;;;11.10;6.03;;;;;;;;;;5910310;28;20041;-71
2023/10/01 07:57:31;;;;;;;13.70;5.35;;;;;;;;;;5910266;28;20051;-74
2023/10/01 08:00:28;;;;;;;9.35;4.60;;;;;;;;;;5910301;28;20072;-74
2023/10/01 08:06:15;;;;;;;7.45;4.72;;;;;;;;;;5910262;28;20051;-73
2023/10/01 08:09:11;;;;;;;7.88;4.85;;;;;;;;;;5910098;28;20076;-74
2023/10/01 08:12:05;;;;;;;8.65;3.75;;;;;;;;;;5893223;28;20387;-73
2023/10/01 08:21:17;;;;;;;8.07;3.55;;;;;;;;;;5899606;28;20044;-74
2023/10/01 08:24:13;;;;;;;6.00;4.28;;;;;;;;;;5914292;28;20057;-72
2023/10/01 08:27:12;;;;;;;28.20;3.92;;;;;;;;;;5914341;28;20087;-73
2023/10/01 08:30:19;;;;;;;3.25;2.95;;;;;;;;;;5896720;28;20459;-73
2023/10/01 08:33:19;;;;;;;11.38;4.35;;;;;;;;;;5914008;28;20476;-72
2023/10/01 08:36:13;;;;;;;8.15;3.50;;;;;;;;;;5913991;28;20051;-74
2023/10/01 08:42:36;;;;;;;12.85;4.30;;;;;;;;;;5841581;28;20114;-72
2023/10/01 08:45:37;;;;;;;5.32;3.17;;;;;;;;;;5841380;28;20056;-72
2023/10/01 08:48:36;;;;;;;5.53;3.58;;;;;;;;;;5907692;28;20765;-73
2023/10/01 08:51:30;;;;;;;6.30;3.27;;;;;;;;;;5913910;28;20124;-73
2023/10/01 08:54:25;;;;;;;6.82;3.95;;;;;;;;;;5913598;28;20052;-72
2023/10/01 08:57:18;;;;;;;7.10;4.30;;;;;;;;;;5913467;28;20087;-74
2023/10/01 09:00:15;;;;;;;8.02;4.28;;;;;;;;;;5913892;28;20051;-72
2023/10/01 09:03:10;;;;;;;7.15;4.18;;;;;;;;;;5906396;28;20048;-73
2023/10/01 09:06:04;;;;;;;4.65;3.35;;;;;;;;;;5913848;28;20565;-73
2023/10/01 09:08:59;;;;;;;12.70;4.75;;;;;;;;;;5914072;28;20045;-73
2023/10/01 09:11:58;;;;;;;5.30;4.63;;;;;;;;;;5913675;28;20044;-73
2023/10/01 09:14:49;;;;;;;13.45;5.60;;;;;;;;;;5913178;28;20069;-72
2023/10/01 09:17:40;;;;;;;6.63;4.28;;;;;;;;;;5913293;28;20044;-73
2023/10/01 09:20:42;;;;;;;7.22;4.32;;;;;;;;;;5911901;28;20044;-74
2023/10/01 09:23:56;;;;;;;21.83;6.10;;;;;;;;;;5912606;28;20127;-73
2023/10/01 09:26:56;;;;;;;11.93;4.40;;;;;;;;;;5911744;28;20041;-73
2023/10/01 09:29:57;;;;;;;11.60;5.95;;;;;;;;;;5913249;28;20427;-74
2023/10/01 09:32:51;;;;;;;11.10;4.50;;;;;;;;;;5912837;28;20102;-74
2023/10/01 09:35:49;;;;;;;9.15;4.32;;;;;;;;;;5912704;28;20040;-74
2023/10/01 09:38:57;;;;;;;;;;;;;;;;;;5928751;28;20392;-74
2023/10/01 09:41:51;;;;;;;12.75;3.17;;;;;;;;;;5912700;28;19993;-75
2023/10/01 09:44:46;;;;;;;6.05;3.78;;;;;;;;;;5894858;28;20048;-72
2023/10/01 09:47:42;;;;;;;6.80;4.00;;;;;;;;;;5911301;28;20087;-73
2023/10/01 09:50:44;;;;;;;8.38;4.70;;;;;;;;;;5912612;28;20068;-72
2023/10/01 09:54:02;;;;;;;11.82;5.32;;;;;;;;;;5912710;28;20052;-71
2023/10/01 09:56:53;;;;;;;21.98;5.30;;;;;;;;;;5912673;28;20127;-73
2023/10/01 09:59:46;;;;;;;12.23;6.10;;;;;;;;;;5894410;28;20063;-72
2023/10/01 10:02:37;;;;;;;15.48;6.75;;;;;;;;;;5891521;28;20044;-73
2023/10/01 10:05:32;;;;;;;12.38;5.63;;;;;;;;;;5912183;28;20059;-71
2023/10/01 10:08:26;;;;;;;5.90;3.70;;;;;;;;;;5894329;28;20044;-74
2023/10/01 10:11:26;;;;;;;11.52;4.32;;;;;;;;;;5911664;28;20471;-73
2023/10/01 10:14:28;;;;;;;6.90;4.53;;;;;;;;;;5888009;28;20041;-73
2023/10/01 10:17:19;;;;;;;16.80;4.65;;;;;;;;;;5911361;28;20052;-74
2023/10/01 10:20:25;;;;;;;9.73;4.47;;;;;;;;;;5911391;28;20096;-72
2023/10/01 10:23:54;;;;;;;6.07;3.85;;;;;;;;;;5911501;28;20045;-73
2023/10/01 10:26:58;;;;;;;13.48;4.32;;;;;;;;;;5894151;28;20479;-73
2023/10/01 10:29:56;;;;;;;18.00;3.78;;;;;;;;;;5911464;28;20047;-73
2023/10/01 10:33:30;;;;;;;10.57;4.97;;;;;;;;;;5911520;28;20044;-73
2023/10/01 10:36:51;;;;;;;7.43;4.18;;;;;;;;;;5910956;28;20041;-72
2023/10/01 10:39:44;;;;;;;7.57;3.33;;;;;;;;;;5911308;28;20048;-72
2023/10/01 10:42:35;;;;;;;10.07;3.75;;;;;;;;;;5911206;28;20463;-73
2023/10/01 10:45:31;;;;;;;6.10;3.47;;;;;;;;;;5910935;28;20064;-73
2023/10/01 10:48:42;;;;;;;5.88;3.42;;;;;;;;;;5910860;28;20456;-73
2023/10/01 10:51:43;;;;;;;11.45;3.17;;;;;;;;;;5910957;28;20072;-72
2023/10/01 10:54:37;;;;;;;18.20;4.85;;;;;;;;;;5910540;28;20183;-74
2023/10/01 10:57:28;;;;;;;14.10;3.67;;;;;;;;;;5910782;28;20045;-73
2023/10/01 11:00:27;;;;;;;7.15;2.85;;;;;;;;;;5910562;28;20054;-73
2023/10/01 11:03:43;;;;;;;8.65;3.50;;;;;;;;;;5910426;28;20105;-73
2023/10/01 11:06:40;;;;;;;33.05;4.03;;;;;;;;;;5894610;28;20048;-73
2023/10/01 11:09:34;;;;;;;6.93;3.35;;;;;;;;;;5910718;28;20044;-73
2023/10/01 11:12:30;;;;;;;5.57;3.17;;;;;;;;;;5910802;28;20049;-71
2023/10/01 11:15:24;;;;;;;10.13;3.55;;;;;;;;;;5910619;28;20067;-72
2023/10/01 11:18:15;;;;;;;10.15;2.72;;;;;;;;;;5910486;28;20444;-71
2023/10/01 11:21:11;;;;;;;4.00;2.80;;;;;;;;;;5893002;28;20415;-73
2023/10/01 11:24:03;;;;;;;3.10;1.77;;;;;;;;;;5910569;28;20052;-73
2023/10/01 11:28:10;;;;;;;5.65;1.85;;;;;;;;;;5892577;28;20369;-71
2023/10/01 11:30:42;;;;;;;4.03;1.65;;;;;;;;;;5901897;28;20044;-74
2023/10/01 11:33:34;;;;;;;15.80;2.92;;;;;;;;;;5910311;28;20131;-72
2023/10/01 11:36:35;;;;;;;12.98;3.42;;;;;;;;;;5910402;28;20047;-73
2023/10/01 11:39:40;;;;;;;4.32;1.40;;;;;;;;;;5909212;28;20532;-73
2023/10/01 11:42:52;;;;;;;3.53;1.92;;;;;;;;;;5910329;28;20048;-73
2023/10/01 11:45:48;;;;;;;1.88;1.58;;;;;;;;;;5895448;28;20049;-72
2023/10/01 11:48:56;;;;;;;3.58;1.30;;;;;;;;;;5910915;28;20048;-72
2023/10/01 11:51:50;;;;;;;7.63;2.00;;;;;;;;;;5915309;28;20040;-74
2023/10/01 11:54:44;;;;;;;2.05;1.35;;;;;;;;;;5913606;28;20051;-72
2023/10/01 11:57:35;;;;;;;5.35;1.13;;;;;;;;;;5914866;28;20044;-74
2023/10/01 12:00:52;;;;;;;3.10;1.65;;;;;;;;;;5914898;28;20036;-73
2023/10/01 12:03:58;;;;;;;2.60;1.38;;;;;;;;;;5900989;28;20049;-73
2023/10/01 12:06:56;;;;;;;4.82;1.70;;;;;;;;;;5914912;28;20052;-72
2023/10/01 12:09:51;;;;;;;3.97;1.23;;;;;;;;;;5896916;28;20107;-72
2023/10/01 12:12:42;;;;;;;6.38;1.63;;;;;;;;;;5914818;28;20499;-72
2023/10/01 12:18:53;;;;;;;4.20;1.92;;;;;;;;;;5888547;28;20054;-71
2023/10/01 12:21:44;;;;;;;4.45;1.35;;;;;;;;;;5896613;28;20045;-73
2023/10/01 12:24:44;;;;;;;2.80;1.60;;;;;;;;;;5914137;28;20507;-72
2023/10/01 12:27:42;;;;;;;1.90;1.45;;;;;;;;;;5898168;28;20056;-72
2023/10/01 12:30:33;;;;;;;3.00;1.83;;;;;;;;;;5914374;28;20048;-72
2023/10/01 12:33:43;;;;;;;3.17;1.40;;;;;;;;;;5913725;28;20041;-72
2023/10/01 12:36:47;;;;;;;5.43;2.08;;;;;;;;;;5893261;28;20048;-72
2023/10/01 12:39:38;;;;;;;3.78;1.25;;;;;;;;;;5913927;28;20064;-72
2023/10/01 12:42:29;;;;;;;7.70;1.42;;;;;;;;;;5913958;28;20036;-73
2023/10/01 12:45:20;;;;;;;3.50;1.08;;;;;;;;;;5895873;28;20498;-72
2023/10/01 12:48:11;;;;;;;3.65;1.60;;;;;;;;;;5913290;28;20041;-71
2023/10/01 12:51:07;;;;;;;3.92;1.30;;;;;;;;;;5916926;28;20051;-73
2023/10/01 12:53:59;;;;;;;3.40;1.00;;;;;;;;;;5917686;28;20049;-72
2023/10/01 12:57:02;;;;;;;3.33;0.98;;;;;;;;;;5910376;28;20041;-74
2023/10/01 13:03:09;;;;;;;4.93;1.23;;;;;;;;;;5913871;28;20062;-72
2023/10/01 13:06:07;;;;;;;1.83;1.20;;;;;;;;;;5926422;28;20071;-74
2023/10/01 13:09:00;;;;;;;9.65;1.85;;;;;;;;;;5913670;28;20072;-73
2023/10/01 13:11:59;;;;;;;2.20;1.10;;;;;;;;;;5912931;28;20040;-74
2023/10/01 13:18:16;;;;;;;3.58;1.42;;;;;;;;;;5890339;28;20032;-73
2023/10/01 13:21:09;;;;;;;6.90;1.58;;;;;;;;;;5912755;28;20052;-73
2023/10/01 13:24:07;;;;;;;7.03;2.08;;;;;;;;;;5908408;28;20048;-73
2023/10/01 13:27:20;;;;;;;3.43;1.20;;;;;;;;;;5902776;28;20048;-73
2023/10/01 13:30:22;;;;;;;0.90;0.57;;;;;;;;;;5912130;28;20350;-73
2023/10/01 13:33:14;;;;;;;2.53;0.88;;;;;;;;;;5908031;28;20045;-71
2023/10/01 13:36:12;;;;;;;2.35;0.98;;;;;;;;;;5902119;28;20511;-73
2023/10/01 14:10:51;;;;;;;1.92;1.60;;;;;;;;;;5911072;28;20045;-74
2023/10/01 14:13:43;;;;;;;1.70;0.85;;;;;;;;;;5870187;28;20053;-73
2023/10/01 14:16:40;;;;;;;7.20;1.95;;;;;;;;;;5878796;28;20131;-74
2023/10/01 14:19:32;;;;;;;5.82;2.05;;;;;;;;;;5888273;28;20075;-72
2023/10/01 14:22:23;;;;;;;3.47;0.98;;;;;;;;;;5905950;28;20126;-73
2023/10/01 14:25:20;;;;;;;1.38;1.02;;;;;;;;;;5911805;28;20045;-74
2023/10/01 14:28:19;;;;;;;2.33;1.08;;;;;;;;;;5893707;28;20179;-72
2023/10/01 14:31:12;;;;;;;1.40;0.80;;;;;;;;;;5900863;28;20453;-72
2023/10/01 14:34:03;;;;;;;14.50;1.73;;;;;;;;;;5886762;28;20168;-72
2023/10/01 14:37:00;;;;;;;6.13;1.13;;;;;;;;;;5886823;28;20045;-74
2023/10/01 14:39:51;;;;;;;6.18;1.17;;;;;;;;;;5908314;28;20044;-72
2023/10/01 14:42:42;;;;;;;4.70;1.42;;;;;;;;;;5887562;28;20041;-72
2023/10/01 14:45:33;;;;;;;1.33;1.13;;;;;;;;;;5886580;28;20055;-72
2023/10/01 14:48:24;;;;;;;4.55;0.98;;;;;;;;;;5886814;28;20379;-75
2023/10/01 14:51:17;;;;;;;2.25;1.40;;;;;;;;;;5887502;28;20061;-72
2023/10/01 14:54:16;;;;;;;3.83;2.05;;;;;;;;;;5887210;28;20052;-72
2023/10/01 14:57:08;;;;;;;2.25;1.33;;;;;;;;;;5887416;28;20041;-72
2023/10/01 15:00:00;;;;;;;4.15;1.40;;;;;;;;;;5887577;28;20171;-74
2023/10/01 15:02:51;;;;;;;4.65;2.03;;;;;;;;;;5918893;28;20402;-74
2023/10/01 15:05:42;;;;;;;3.72;1.15;;;;;;;;;;5926442;28;20048;-72
2023/10/01 15:08:37;;;;;;;3.80;1.50;;;;;;;;;;5910412;28;20056;-72
2023/10/01 15:11:30;;;;;;;1.98;0.85;;;;;;;;;;5910322;28;20056;-74
2023/10/01 15:14:26;;;;;;;1.67;1.00;;;;;;;;;;5890367;28;20620;-72
2023/10/01 15:17:25;;;;;;;6.70;1.70;;;;;;;;;;5886125;28;20515;-73
2023/10/01 15:20:27;;;;;;;2.10;1.33;;;;;;;;;;5885428;28;20070;-73
2023/10/01 15:23:19;;;;;;;0.90;0.75;;;;;;;;;;5886346;28;20045;-73
2023/10/01 15:26:22;;;;;;;6.22;2.40;;;;;;;;;;5872746;28;20045;-72
2023/10/01 15:29:13;;;;;;;2.53;1.83;;;;;;;;;;5888984;28;20512;-73
2023/10/01 15:32:14;;;;;;;17.20;2.42;;;;;;;;;;5886853;28;20099;-72
2023/10/01 15:35:08;;;;;;;4.50;2.10;;;;;;;;;;5901143;28;20117;-74
2023/10/01 15:37:59;;;;;;;2.35;1.30;;;;;;;;;;5909673;28;20072;-72
2023/10/01 15:40:51;;;;;;;2.70;1.52;;;;;;;;;;5892041;28;20484;-73
2023/10/01 15:43:50;;;;;;;5.63;2.17;;;;;;;;;;5897602;28;20044;-72
2023/10/01 15:46:43;;;;;;;8.30;3.25;;;;;;;;;;5899744;28;20044;-72
2023/10/01 15:49:39;;;;;;;8.73;2.72;;;;;;;;;;5904154;28;20045;-74
2023/10/01 15:52:37;;;;;;;4.43;2.05;;;;;;;;;;5909050;28;20067;-73
2023/10/01 15:55:31;;;;;;;5.10;3.00;;;;;;;;;;5911086;28;20113;-74
2023/10/01 15:58:26;;;;;;;8.85;3.25;;;;;;;;;;5909762;28;20045;-73
2023/10/01 16:01:23;;;;;;;2.42;1.50;;;;;;;;;;5899237;28;20139;-72
2023/10/01 16:04:14;;;;;;;7.68;4.28;;;;;;;;;;5888459;28;20045;-74
2023/10/01 16:07:05;;;;;;;18.10;8.75;;;;;;;;;;5909759;28;20044;-74
2023/10/01 16:09:56;;;;;;;18.63;5.50;;;;;;;;;;5891985;28;20045;-74
2023/10/01 16:12:47;;;;;;;4.47;2.10;;;;;;;;;;5905650;28;20068;-72
2023/10/01 16:15:37;;;;;;;10.02;3.08;;;;;;;;;;5889316;28;20049;-72
2023/10/01 16:18:33;;;;;;;3.58;1.88;;;;;;;;;;5885494;28;20404;-74
2023/10/01 16:21:25;;;;;;;4.68;2.20;;;;;;;;;;5885162;28;20487;-73
2023/10/01 16:24:16;;;;;;;7.10;1.70;;;;;;;;;;5908450;28;20048;-73
2023/10/01 16:27:07;;;;;;;2.70;1.52;;;;;;;;;;5908863;28;20443;-75
2023/10/01 16:30:11;;;;;;;5.97;2.28;;;;;;;;;;5909848;28;20037;-74
2023/10/01 16:33:04;;;;;;;3.38;2.17;;;;;;;;;;5894725;28;20041;-73
2023/10/01 16:35:55;;;;;;;5.78;2.15;;;;;;;;;;5926906;28;20041;-73
2023/10/01 16:38:51;;;;;;;4.47;1.83;;;;;;;;;;5913532;28;20044;-75
2023/10/01 16:41:42;;;;;;;20.55;6.82;;;;;;;;;;5889089;28;20098;-74
2023/10/01 16:44:36;;;;;;;7.18;3.63;;;;;;;;;;5891464;28;20049;-74
2023/10/01 16:47:30;;;;;;;5.85;2.13;;;;;;;;;;5885950;28;20045;-72
2023/10/01 16:50:56;;;;;;;2.92;1.50;;;;;;;;;;5890191;28;20048;-74
2023/10/01 16:53:51;;;;;;;6.28;1.60;;;;;;;;;;5898788;28;20114;-74
2023/10/01 16:56:48;;;;;;;4.80;2.08;;;;;;;;;;5900005;28;20543;-73
2023/10/01 16:59:56;;;;;;;8.45;3.22;;;;;;;;;;5899590;28;20472;-72
2023/10/01 17:02:47;;;;;;;7.80;5.43;;;;;;;;;;5870183;28;20041;-74
2023/10/01 17:05:42;;;;;;;13.15;6.10;;;;;;;;;;5889142;28;20052;-73
2023/10/01 17:08:39;;;;;;;3.17;1.48;;;;;;;;;;5871639;28;20047;-72
2023/10/01 17:11:30;;;;;;;1.08;0.75;;;;;;;;;;5884267;28;20063;-73
2023/10/01 17:14:22;;;;;;;3.17;1.20;;;;;;;;;;5912845;28;20125;-72
2023/10/01 17:17:15;;;;;;;2.20;1.45;;;;;;;;;;5916414;28;20045;-73
2023/10/01 17:20:13;;;;;;;4.25;2.08;;;;;;;;;;5912551;28;20040;-75
2023/10/01 17:23:04;;;;;;;11.15;3.28;;;;;;;;;;5921900;28;20071;-73
2023/10/01 17:26:00;;;;;;;0.75;0.75;;;;;;;;;;5927631;28;20487;-72
2023/10/01 17:28:55;;;;;;;2.75;1.75;;;;;;;;;;5913255;28;20040;-73
2023/10/01 17:31:48;;;;;;;3.30;1.80;;;;;;;;;;5895223;28;20147;-73
2023/10/01 17:34:40;;;;;;;13.23;3.40;;;;;;;;;;5926061;28;20044;-73
2023/10/01 17:37:31;;;;;;;5.78;2.97;;;;;;;;;;5887080;28;20056;-75
2023/10/01 17:40:23;;;;;;;6.45;3.10;;;;;;;;;;5912400;28;20040;-72
2023/10/01 17:43:27;;;;;;;17.98;6.18;;;;;;;;;;5878719;28;20048;-72
2023/10/01 17:46:18;;;;;;;3.90;2.58;;;;;;;;;;5889284;28;20058;-72
2023/10/01 17:49:16;;;;;;;6.60;3.90;;;;;;;;;;5898219;28;20452;-72
2023/10/01 17:52:21;;;;;;;11.27;3.78;;;;;;;;;;5903669;28;20446;-74
2023/10/01 17:55:23;;;;;;;9.40;6.68;;;;;;;;;;5908542;28;20092;-74
2023/10/01 17:58:20;;;;;;;16.63;8.23;;;;;;;;;;5889597;28;20128;-75
2023/10/01 18:01:13;;;;;;;12.82;6.65;;;;;;;;;;5886265;28;20492;-73
2023/10/01 18:04:08;;;;;;;17.13;4.88;;;;;;;;;;5923775;28;20140;-73
2023/10/01 18:06:59;;;;;;;10.43;7.40;;;;;;;;;;5893098;28;20052;-73
2023/10/01 18:09:54;;;;;;;11.65;7.68;;;;;;;;;;5911916;28;20052;-73
2023/10/01 18:12:46;;;;;;;8.80;5.28;;;;;;;;;;5910780;28;20044;-73
2023/10/01 18:15:39;;;;;;;2.85;2.03;;;;;;;;;;5905067;28;20053;-73
2023/10/01 18:18:32;;;;;;;11.48;6.88;;;;;;;;;;5888162;28;20079;-73
2023/10/01 18:21:22;;;;;;;28.05;17.27;;;;;;;;;;5875168;28;20052;-74
2023/10/01 18:24:13;;;;;;;21.73;10.82;;;;;;;;;;5911360;28;20045;-74
2023/10/01 18:27:07;;;;;;;27.80;9.80;;;;;;;;;;5911332;28;20052;-74
2023/10/01 18:29:57;;;;;;;29.88;10.32;;;;;;;;;;5893988;28;20056;-76
2023/10/01 18:32:50;;;;;;;16.73;9.35;;;;;;;;;;5910683;28;20040;-73